createdAt,value
2019-05-21T00:00:18.849Z,30.82
2019-05-21T00:02:47.024Z,30.72
2019-05-21T00:05:15.223Z,31.45
2019-05-21T00:07:43.465Z,32.70
2019-05-21T00:10:11.801Z,28.47
2019-05-21T00:12:39.990Z,26.42
2019-05-21T00:15:08.277Z,24.60
2019-05-21T00:17:36.484Z,23.15
2019-05-21T00:20:04.881Z,24.02
2019-05-21T00:22:33.185Z,22.95
2019-05-21T00:25:01.417Z,24.70
2019-05-21T00:27:29.760Z,25.05
2019-05-21T00:30:33.657Z,24.90
2019-05-21T00:33:37.285Z,24.63
2019-05-21T00:36:41.454Z,24.02
2019-05-21T00:39:45.584Z,23.45
2019-05-21T00:42:18.554Z,23.07
2019-05-21T00:44:46.821Z,24.18
2019-05-21T00:47:15.167Z,25.88
2019-05-21T00:49:43.370Z,23.30
2019-05-21T00:52:11.676Z,23.80
2019-05-21T00:54:39.964Z,24.35
2019-05-21T00:57:08.191Z,22.87
2019-05-21T00:59:36.437Z,22.15
2019-05-21T01:02:04.647Z,20.32
2019-05-21T01:04:32.885Z,21.07
2019-05-21T01:07:04.758Z,19.73
2019-05-21T01:09:32.952Z,19.75
2019-05-21T01:12:04.111Z,20.00
2019-05-21T01:14:32.295Z,19.15
2019-05-21T01:17:00.498Z,18.80
2019-05-21T01:19:30.990Z,20.37
2019-05-21T01:21:59.173Z,20.12
2019-05-21T01:24:27.351Z,20.30
2019-05-21T01:26:55.571Z,21.10
2019-05-21T01:29:23.789Z,20.97
2019-05-21T01:31:51.986Z,21.30
2019-05-21T01:34:20.212Z,20.65
2019-05-21T01:36:48.500Z,21.85
2019-05-21T01:39:16.695Z,20.95
2019-05-21T01:41:45.009Z,21.17
2019-05-21T01:44:13.222Z,21.33
2019-05-21T01:46:41.466Z,20.25
2019-05-21T01:49:09.663Z,21.95
2019-05-21T01:51:37.906Z,19.95
2019-05-21T01:54:06.100Z,21.02
2019-05-21T01:56:34.320Z,22.77
2019-05-21T01:59:02.662Z,22.77
2019-05-21T02:01:30.865Z,21.30
2019-05-21T02:03:59.094Z,22.50
2019-05-21T02:06:27.281Z,23.57
2019-05-21T02:08:55.498Z,22.85
2019-05-21T02:11:23.758Z,22.90
2019-05-21T02:13:51.979Z,21.27
2019-05-21T02:16:20.331Z,20.68
2019-05-21T02:18:48.566Z,21.23
2019-05-21T02:21:16.767Z,20.50
2019-05-21T02:23:44.967Z,20.35
2019-05-21T02:26:13.177Z,20.32
2019-05-21T02:28:41.442Z,20.68
2019-05-21T02:31:09.620Z,20.90
2019-05-21T02:33:37.858Z,21.33
2019-05-21T02:36:06.073Z,22.35
2019-05-21T02:38:34.253Z,22.58
2019-05-21T02:41:03.481Z,24.10
2019-05-21T02:43:31.691Z,23.95
2019-05-21T02:45:59.913Z,23.98
2019-05-21T02:48:28.139Z,25.75
2019-05-21T02:50:56.362Z,24.40
2019-05-21T02:53:24.590Z,23.83
2019-05-21T02:55:52.853Z,24.67
2019-05-21T02:58:21.088Z,24.25
2019-05-21T03:00:49.280Z,24.02
2019-05-21T03:03:17.505Z,22.98
2019-05-21T03:05:45.733Z,25.08
2019-05-21T03:08:13.942Z,23.22
2019-05-21T03:10:42.170Z,19.75
2019-05-21T03:13:10.450Z,21.42
2019-05-21T03:15:38.751Z,22.30
2019-05-21T03:18:07.092Z,21.97
2019-05-21T03:20:35.369Z,21.60
2019-05-21T03:23:05.390Z,22.32
2019-05-21T03:25:33.708Z,22.35
2019-05-21T03:28:02.847Z,20.02
2019-05-21T03:30:31.172Z,20.32
2019-05-21T03:33:00.007Z,21.30
2019-05-21T03:35:28.189Z,22.40
2019-05-21T03:37:56.389Z,21.97
2019-05-21T03:40:24.613Z,21.97
2019-05-21T03:42:52.932Z,23.02
2019-05-21T03:45:21.161Z,21.42
2019-05-21T03:47:49.379Z,21.10
2019-05-21T03:50:17.559Z,19.70
2019-05-21T03:52:45.891Z,22.67
2019-05-21T03:55:14.109Z,21.05
2019-05-21T03:57:42.327Z,22.27
2019-05-21T04:00:11.351Z,22.70
2019-05-21T04:02:39.689Z,21.30
2019-05-21T04:05:08.257Z,21.02
2019-05-21T04:07:36.491Z,18.00
2019-05-21T04:10:07.359Z,17.50
2019-05-21T04:12:35.569Z,16.95
2019-05-21T04:15:04.260Z,18.65
2019-05-21T04:17:34.797Z,18.67
2019-05-21T04:20:05.250Z,19.48
2019-05-21T04:22:33.475Z,19.95
2019-05-21T04:25:03.261Z,18.20
2019-05-21T04:27:31.495Z,20.00
2019-05-21T04:29:59.713Z,19.62
2019-05-21T04:32:27.960Z,20.68
2019-05-21T04:34:56.274Z,21.42
2019-05-21T04:37:24.520Z,22.62
2019-05-21T04:39:52.791Z,20.75
2019-05-21T04:42:20.988Z,20.17
2019-05-21T04:44:49.279Z,20.30
2019-05-21T04:47:17.541Z,18.37
2019-05-21T04:49:45.773Z,21.33
2019-05-21T04:52:14.004Z,22.07
2019-05-21T04:54:42.247Z,22.85
2019-05-21T04:57:10.521Z,22.30
2019-05-21T04:59:38.788Z,22.15
2019-05-21T05:02:07.044Z,23.10
2019-05-21T05:04:35.294Z,25.88
2019-05-21T05:07:04.001Z,25.35
2019-05-21T05:09:32.196Z,25.90
2019-05-21T05:12:00.434Z,26.82
2019-05-21T05:14:28.635Z,25.60
2019-05-21T05:16:56.838Z,26.48
2019-05-21T05:19:25.086Z,25.62
2019-05-21T05:21:53.437Z,23.62
2019-05-21T05:24:21.631Z,19.27
2019-05-21T05:26:49.881Z,16.80
2019-05-21T05:29:18.067Z,15.95
2019-05-21T05:31:46.247Z,16.23
2019-05-21T05:34:14.537Z,17.85
2019-05-21T05:36:42.743Z,16.50
2019-05-21T05:39:10.942Z,19.17
2019-05-21T05:41:39.283Z,20.68
2019-05-21T05:44:07.504Z,17.45
2019-05-21T05:46:35.726Z,17.40
2019-05-21T05:49:03.922Z,18.40
2019-05-21T05:51:32.160Z,20.27
2019-05-21T05:54:00.375Z,21.20
2019-05-21T05:56:29.368Z,21.37
2019-05-21T05:58:57.752Z,20.25
2019-05-21T06:01:26.094Z,16.20
2019-05-21T06:03:54.303Z,13.55
2019-05-21T06:06:22.513Z,12.47
2019-05-21T06:08:50.715Z,12.43
2019-05-21T06:11:18.918Z,11.50
2019-05-21T06:13:47.256Z,12.45
2019-05-21T06:16:15.478Z,11.30
2019-05-21T06:18:43.677Z,11.93
2019-05-21T06:21:11.975Z,11.73
2019-05-21T06:23:40.234Z,10.90
2019-05-21T06:26:08.403Z,11.38
2019-05-21T06:28:36.610Z,11.90
2019-05-21T06:31:04.867Z,12.45
2019-05-21T06:33:33.074Z,12.35
2019-05-21T06:36:03.977Z,12.18
2019-05-21T06:38:32.093Z,10.82
2019-05-21T06:41:00.258Z,9.93
2019-05-21T06:43:28.401Z,8.75
2019-05-21T06:45:56.608Z,8.80
2019-05-21T06:48:24.768Z,7.75
2019-05-21T06:50:52.961Z,7.75
2019-05-21T06:53:21.040Z,8.08
2019-05-21T06:55:49.228Z,7.42
2019-05-21T06:58:17.383Z,8.33
2019-05-21T07:00:45.501Z,8.53
2019-05-21T07:03:13.662Z,7.87
2019-05-21T07:05:57.745Z,8.08
2019-05-21T07:08:11.612Z,8.60
2019-05-21T07:10:39.789Z,7.78
2019-05-21T07:13:07.987Z,8.48
2019-05-21T07:15:36.193Z,8.45
2019-05-21T07:18:04.316Z,8.45
2019-05-21T07:20:32.504Z,8.08
2019-05-21T07:23:00.870Z,7.75
2019-05-21T07:25:29.033Z,7.55
2019-05-21T07:27:57.206Z,7.80
2019-05-21T07:30:25.345Z,7.70
2019-05-21T07:32:53.521Z,7.05
2019-05-21T07:35:21.589Z,8.30
2019-05-21T07:37:49.737Z,7.97
2019-05-21T07:40:18.056Z,7.87
2019-05-21T07:42:46.171Z,6.83
2019-05-21T07:45:14.591Z,7.20
2019-05-21T07:47:42.710Z,6.92
2019-05-21T07:50:11.813Z,6.22
2019-05-21T07:52:39.963Z,8.33
2019-05-21T07:55:08.169Z,8.50
2019-05-21T07:57:36.450Z,8.93
2019-05-21T08:00:06.881Z,11.97
2019-05-21T08:02:35.039Z,12.98
2019-05-21T08:05:03.724Z,12.63
2019-05-21T08:07:31.925Z,12.05
2019-05-21T08:10:00.056Z,11.70
2019-05-21T08:12:39.095Z,12.93
2019-05-21T08:14:58.142Z,12.18
2019-05-21T08:17:26.420Z,12.45
2019-05-21T08:19:54.583Z,15.78
2019-05-21T08:22:22.709Z,14.73
2019-05-21T08:24:50.857Z,16.93
2019-05-21T08:27:19.009Z,14.73
2019-05-21T08:29:47.196Z,14.10
2019-05-21T08:32:15.319Z,11.43
2019-05-21T08:34:44.713Z,12.05
2019-05-21T08:37:12.810Z,12.58
2019-05-21T08:39:40.957Z,11.93
2019-05-21T08:42:09.103Z,12.03
2019-05-21T08:44:37.228Z,10.50
2019-05-21T08:47:05.448Z,8.38
2019-05-21T08:49:33.541Z,12.43
2019-05-21T08:52:05.459Z,8.30
2019-05-21T08:54:33.590Z,7.65
2019-05-21T08:57:01.711Z,7.62
2019-05-21T08:59:29.804Z,7.35
2019-05-21T09:01:59.071Z,6.80
2019-05-21T09:04:45.431Z,7.50
2019-05-21T09:06:57.425Z,7.37
2019-05-21T09:09:25.546Z,7.75
2019-05-21T09:11:53.681Z,8.30
2019-05-21T09:14:21.980Z,9.03
2019-05-21T09:16:50.151Z,9.25
2019-05-21T09:19:18.322Z,9.90
2019-05-21T09:21:46.460Z,9.58
2019-05-21T09:24:14.642Z,9.45
2019-05-21T09:26:43.503Z,10.05
2019-05-21T09:29:11.641Z,10.18
2019-05-21T09:31:39.752Z,9.80
2019-05-21T09:34:07.878Z,10.65
2019-05-21T09:36:36.119Z,9.95
2019-05-21T09:39:05.717Z,10.43
2019-05-21T09:41:33.851Z,9.97
2019-05-21T09:44:02.008Z,10.03
2019-05-21T09:46:30.147Z,9.95
2019-05-21T09:48:58.243Z,9.23
2019-05-21T09:51:26.500Z,10.90
2019-05-21T09:53:54.781Z,9.33
2019-05-21T09:56:23.013Z,8.63
2019-05-21T09:58:51.268Z,9.43
2019-05-21T10:01:19.438Z,9.70
2019-05-21T10:03:47.571Z,10.68
2019-05-21T10:06:15.662Z,11.85
2019-05-21T10:08:43.818Z,12.80
2019-05-21T10:11:11.956Z,12.73
2019-05-21T10:13:40.088Z,11.80
2019-05-21T10:16:08.211Z,10.98
2019-05-21T10:18:36.323Z,11.05
2019-05-21T10:21:05.615Z,12.15
2019-05-21T10:23:33.795Z,12.45
2019-05-21T10:26:03.707Z,12.35
2019-05-21T10:28:31.847Z,12.13
2019-05-21T10:31:00.743Z,12.68
2019-05-21T10:33:28.901Z,12.05
2019-05-21T10:35:57.045Z,12.05
2019-05-21T10:38:25.683Z,13.22
2019-05-21T10:40:53.860Z,12.30
2019-05-21T10:43:21.967Z,13.08
2019-05-21T10:45:50.244Z,12.45
2019-05-21T10:48:18.378Z,13.45
2019-05-21T10:50:46.509Z,12.88
2019-05-21T10:53:14.695Z,13.15
2019-05-21T10:55:42.854Z,13.60
2019-05-21T10:58:10.975Z,13.83
2019-05-21T11:00:39.370Z,14.03
2019-05-21T11:03:07.604Z,13.95
2019-05-21T11:05:35.759Z,14.85
2019-05-21T11:08:23.045Z,14.53
2019-05-21T11:10:34.792Z,13.60
2019-05-21T11:13:02.948Z,14.05
2019-05-21T11:15:31.126Z,14.83
2019-05-21T11:18:10.528Z,13.98
2019-05-21T11:20:29.141Z,15.35
2019-05-21T11:22:58.383Z,15.80
2019-05-21T11:25:26.783Z,14.78
2019-05-21T11:27:54.931Z,15.95
2019-05-21T11:30:23.037Z,15.40
2019-05-21T11:32:51.220Z,15.65
2019-05-21T11:35:20.498Z,17.07
2019-05-21T11:37:48.619Z,16.70
2019-05-21T11:40:17.652Z,16.00
2019-05-21T11:42:45.779Z,14.60
2019-05-21T11:45:30.709Z,13.45
2019-05-21T11:47:43.996Z,13.30
2019-05-21T11:50:12.512Z,12.70
2019-05-21T11:52:40.673Z,12.70
2019-05-21T11:55:08.906Z,11.25
2019-05-21T11:57:37.033Z,10.78
2019-05-21T12:00:05.802Z,11.25
2019-05-21T12:02:33.958Z,11.68
2019-05-21T12:05:02.069Z,12.13
2019-05-21T12:07:30.227Z,10.08
2019-05-21T12:09:59.092Z,10.93
2019-05-21T12:12:27.336Z,10.85
2019-05-21T12:14:55.538Z,10.88
2019-05-21T12:17:23.693Z,10.35
2019-05-21T12:19:51.967Z,11.33
2019-05-21T12:22:20.139Z,12.70
2019-05-21T12:24:48.298Z,12.10
2019-05-21T12:27:16.510Z,13.03
2019-05-21T12:29:44.628Z,12.88
2019-05-21T12:32:12.774Z,12.50
2019-05-21T12:34:40.933Z,11.90
2019-05-21T12:37:09.050Z,12.85
2019-05-21T12:39:37.200Z,13.70
2019-05-21T12:42:05.455Z,12.90
2019-05-21T12:44:33.590Z,13.32
2019-05-21T12:47:01.730Z,13.22
2019-05-21T12:49:29.864Z,14.07
2019-05-21T12:51:58.011Z,14.50
2019-05-21T12:54:26.158Z,14.07
2019-05-21T12:56:54.345Z,12.70
2019-05-21T12:59:22.495Z,12.13
2019-05-21T13:01:50.619Z,12.15
2019-05-21T13:04:18.770Z,12.37
2019-05-21T13:06:46.929Z,11.50
2019-05-21T13:09:31.337Z,11.75
2019-05-21T13:11:44.977Z,11.73
2019-05-21T13:14:16.315Z,11.70
2019-05-21T13:16:43.013Z,12.30
2019-05-21T13:19:11.465Z,12.53
2019-05-21T13:21:39.674Z,12.25
2019-05-21T13:24:07.844Z,12.28
2019-05-21T13:26:36.699Z,12.53
2019-05-21T13:29:04.935Z,12.13
2019-05-21T13:31:33.783Z,12.43
2019-05-21T13:34:01.920Z,11.55
2019-05-21T13:36:30.062Z,11.48
2019-05-21T13:38:58.191Z,11.48
2019-05-21T13:41:26.340Z,11.73
2019-05-21T13:43:54.483Z,11.03
2019-05-21T13:46:22.704Z,11.48
2019-05-21T13:48:50.866Z,9.95
2019-05-21T13:51:18.998Z,10.38
2019-05-21T13:53:47.136Z,10.38
2019-05-21T13:56:15.384Z,11.22
2019-05-21T13:58:43.490Z,11.45
2019-05-21T14:01:15.719Z,11.60
2019-05-21T14:03:42.186Z,11.65
2019-05-21T14:06:10.364Z,11.65
2019-05-21T14:08:38.502Z,11.68
2019-05-21T14:11:06.645Z,11.38
2019-05-21T14:13:34.870Z,11.30
2019-05-21T14:16:02.991Z,10.75
2019-05-21T14:18:31.122Z,10.78
2019-05-21T14:20:59.274Z,11.65
2019-05-21T14:23:27.407Z,12.33
2019-05-21T14:25:55.625Z,11.12
2019-05-21T14:28:23.830Z,11.15
2019-05-21T14:30:52.258Z,10.98
2019-05-21T14:33:20.404Z,11.40
2019-05-21T14:35:51.313Z,11.75
2019-05-21T14:38:19.520Z,11.48
2019-05-21T14:40:47.664Z,11.60
2019-05-21T14:43:16.419Z,11.70
2019-05-21T14:45:44.569Z,12.82
2019-05-21T14:48:12.783Z,12.43
2019-05-21T14:50:40.921Z,12.13
2019-05-21T14:53:09.133Z,12.90
2019-05-21T14:55:37.246Z,12.60
2019-05-21T14:58:06.512Z,12.90
2019-05-21T15:00:34.726Z,14.07
2019-05-21T15:03:03.631Z,13.95
2019-05-21T15:05:32.323Z,14.80
2019-05-21T15:08:00.456Z,14.70
2019-05-21T15:10:28.641Z,13.75
2019-05-21T15:12:56.856Z,13.43
2019-05-21T15:15:25.013Z,14.78
2019-05-21T15:17:53.183Z,14.55
2019-05-21T15:20:21.532Z,14.38
2019-05-21T15:22:49.640Z,14.68
2019-05-21T15:25:17.812Z,14.53
2019-05-21T15:27:45.945Z,14.45
2019-05-21T15:30:14.071Z,15.25
2019-05-21T15:32:42.222Z,15.58
2019-05-21T15:35:10.378Z,16.32
2019-05-21T15:37:38.866Z,16.62
2019-05-21T15:40:07.965Z,16.32
2019-05-21T15:42:36.095Z,17.87
2019-05-21T15:45:06.616Z,17.02
2019-05-21T15:50:01.991Z,17.23
2019-05-21T15:52:30.254Z,18.90
2019-05-21T15:54:58.435Z,19.67
2019-05-21T15:57:26.590Z,20.35
2019-05-21T15:59:54.813Z,21.07
2019-05-21T16:02:23.004Z,22.73
2019-05-21T16:04:51.172Z,20.37
2019-05-21T16:07:19.294Z,22.55
2019-05-21T16:09:47.432Z,22.10
2019-05-21T16:12:15.633Z,21.85
2019-05-21T16:14:43.766Z,21.17
2019-05-21T16:17:12.789Z,21.50
2019-05-21T16:19:40.972Z,20.75
2019-05-21T16:22:09.126Z,20.88
2019-05-21T16:24:37.673Z,22.10
2019-05-21T16:27:05.805Z,21.60
2019-05-21T16:29:33.922Z,20.25
2019-05-21T16:32:03.467Z,21.20
2019-05-21T16:34:32.178Z,19.65
2019-05-21T16:37:00.414Z,19.55
2019-05-21T16:39:29.857Z,18.45
2019-05-21T16:41:58.019Z,18.60
2019-05-21T16:44:26.249Z,19.25
2019-05-21T16:46:57.483Z,20.60
2019-05-21T16:49:25.735Z,20.52
2019-05-21T16:51:53.945Z,21.20
2019-05-21T16:54:22.235Z,20.17
2019-05-21T16:56:50.396Z,18.40
2019-05-21T16:59:18.552Z,18.32
2019-05-21T17:01:46.690Z,18.12
2019-05-21T17:04:14.809Z,18.48
2019-05-21T17:06:42.975Z,16.87
2019-05-21T17:09:12.970Z,17.07
2019-05-21T17:11:41.085Z,18.30
2019-05-21T17:14:09.223Z,17.65
2019-05-21T17:16:37.399Z,17.73
2019-05-21T17:19:05.622Z,17.48
2019-05-21T17:21:33.750Z,17.70
2019-05-21T17:24:03.409Z,17.75
2019-05-21T17:26:31.553Z,18.10
2019-05-21T17:28:59.703Z,17.30
2019-05-21T17:31:27.865Z,17.37
2019-05-21T17:33:56.032Z,18.05
2019-05-21T17:36:24.188Z,18.45
2019-05-21T17:38:52.343Z,16.93
2019-05-21T17:41:20.513Z,17.27
2019-05-21T17:43:48.632Z,20.10
2019-05-21T17:46:16.969Z,21.70
2019-05-21T17:48:45.094Z,21.90
2019-05-21T17:51:13.400Z,23.10
2019-05-21T17:53:41.579Z,24.63
2019-05-21T17:56:09.687Z,23.35
2019-05-21T17:58:37.881Z,23.32
2019-05-21T18:01:06.005Z,25.90
2019-05-21T18:03:34.143Z,26.37
2019-05-21T18:06:05.234Z,26.05
2019-05-21T18:08:33.382Z,26.52
2019-05-21T18:11:01.765Z,27.07
2019-05-21T18:13:29.982Z,26.77
2019-05-21T18:15:58.230Z,26.25
2019-05-21T18:18:26.498Z,28.12
2019-05-21T18:20:54.676Z,28.62
2019-05-21T18:23:22.825Z,27.87
2019-05-21T18:25:50.979Z,28.02
2019-05-21T18:28:19.141Z,28.70
2019-05-21T18:30:47.274Z,25.62
2019-05-21T18:33:15.510Z,26.97
2019-05-21T18:35:45.444Z,26.82
2019-05-21T18:38:13.707Z,26.37
2019-05-21T18:40:41.979Z,26.65
2019-05-21T18:43:10.108Z,27.30
2019-05-21T18:45:38.434Z,26.65
2019-05-21T18:48:06.572Z,26.17
2019-05-21T18:50:36.563Z,25.90
2019-05-21T18:53:04.638Z,23.92
2019-05-21T18:55:32.912Z,24.20
2019-05-21T18:58:02.294Z,22.75
2019-05-21T19:00:30.764Z,23.65
2019-05-21T19:02:58.913Z,22.98
2019-05-21T19:05:27.082Z,23.30
2019-05-21T19:07:55.357Z,21.95
2019-05-21T19:10:23.550Z,22.65
2019-05-21T19:12:51.878Z,23.18
2019-05-21T19:15:20.044Z,23.22
2019-05-21T19:17:48.228Z,21.93
2019-05-21T19:20:17.099Z,23.00
2019-05-21T19:22:45.233Z,22.48
2019-05-21T19:25:13.505Z,24.82
2019-05-21T19:27:41.613Z,23.73
2019-05-21T19:30:10.244Z,22.58
2019-05-21T19:32:38.428Z,20.97
2019-05-21T19:35:08.294Z,21.55
2019-05-21T19:37:36.438Z,22.02
2019-05-21T19:40:07.111Z,21.35
2019-05-21T19:42:35.222Z,21.97
2019-05-21T19:45:04.223Z,21.17
2019-05-21T19:47:32.390Z,21.37
2019-05-21T19:50:00.528Z,23.47
2019-05-21T19:52:28.645Z,22.32
2019-05-21T19:54:56.946Z,21.97
2019-05-21T19:57:25.161Z,21.97
2019-05-21T19:59:53.399Z,21.57
2019-05-21T20:02:21.563Z,20.45
2019-05-21T20:04:49.818Z,20.05
2019-05-21T20:07:17.972Z,19.87
2019-05-21T20:09:46.121Z,19.40
2019-05-21T20:12:14.367Z,17.60
2019-05-21T20:14:42.529Z,17.73
2019-05-21T20:17:11.133Z,17.90
2019-05-21T20:19:40.056Z,16.55
2019-05-21T20:22:08.501Z,16.77
2019-05-21T20:24:36.632Z,16.23
2019-05-21T20:27:05.510Z,17.62
2019-05-21T20:29:34.258Z,16.12
2019-05-21T20:32:03.942Z,16.17
2019-05-21T20:34:32.105Z,16.57
2019-05-21T20:37:19.055Z,16.60
2019-05-21T20:39:39.966Z,16.67
2019-05-21T20:42:12.103Z,16.67
2019-05-21T20:44:40.243Z,16.32
2019-05-21T20:47:08.788Z,16.85
2019-05-21T20:49:40.351Z,16.82
2019-05-21T20:52:18.484Z,17.90
2019-05-21T20:54:47.011Z,17.35
2019-05-21T20:57:15.251Z,17.35
2019-05-21T20:59:43.520Z,17.02
2019-05-21T21:02:13.503Z,17.80
2019-05-21T21:04:43.064Z,16.48
2019-05-21T21:07:11.227Z,15.75
2019-05-21T21:09:41.394Z,15.40
2019-05-21T21:12:10.156Z,15.75
2019-05-21T21:14:39.180Z,15.70
2019-05-21T21:17:10.200Z,16.48
2019-05-21T21:19:38.809Z,15.93
2019-05-21T21:22:07.007Z,16.35
2019-05-21T21:24:35.327Z,16.62
2019-05-21T21:27:04.526Z,16.20
2019-05-21T21:29:32.663Z,15.63
2019-05-21T21:32:00.895Z,15.95
2019-05-21T21:34:29.022Z,15.38
2019-05-21T21:36:57.224Z,15.28
2019-05-21T21:39:25.653Z,15.68
2019-05-21T21:41:53.926Z,15.15
2019-05-21T21:44:33.660Z,15.88
2019-05-21T21:46:52.278Z,14.30
2019-05-21T21:49:20.439Z,15.23
2019-05-21T21:51:48.703Z,16.25
2019-05-21T21:54:17.012Z,14.80
2019-05-21T21:56:45.175Z,15.50
2019-05-21T21:59:13.321Z,14.58
2019-05-21T22:01:51.535Z,15.23
2019-05-21T22:04:23.037Z,14.63
2019-05-21T22:06:51.295Z,14.60
2019-05-21T22:09:19.643Z,14.90
2019-05-21T22:11:47.775Z,16.62
2019-05-21T22:14:15.971Z,14.60
2019-05-21T22:16:45.026Z,14.13
2019-05-21T22:19:13.380Z,13.70
2019-05-21T22:21:41.518Z,13.25
2019-05-21T22:24:09.625Z,13.05
2019-05-21T22:26:37.757Z,12.50
2019-05-21T22:29:05.930Z,13.05
2019-05-21T22:31:34.081Z,12.75
2019-05-21T22:34:03.692Z,12.47
2019-05-21T22:36:31.811Z,11.73
2019-05-21T22:38:59.925Z,12.07
2019-05-21T22:41:28.069Z,12.85
2019-05-21T22:43:56.343Z,10.93
2019-05-21T22:46:24.677Z,11.60
2019-05-21T22:48:53.041Z,10.13
2019-05-21T22:51:21.164Z,10.58
2019-05-21T22:53:49.303Z,10.10
2019-05-21T22:56:17.429Z,10.35
2019-05-21T22:58:45.558Z,10.18
2019-05-21T23:01:14.172Z,10.85
2019-05-21T23:03:42.335Z,12.20
2019-05-21T23:06:10.629Z,11.55
2019-05-21T23:08:38.746Z,11.35
2019-05-21T23:11:07.008Z,10.75
2019-05-21T23:13:35.177Z,11.35
2019-05-21T23:16:03.584Z,10.63
2019-05-21T23:18:31.759Z,10.48
2019-05-21T23:20:59.870Z,10.82
2019-05-21T23:23:28.145Z,10.08
2019-05-21T23:25:57.504Z,10.53
2019-05-21T23:28:25.789Z,10.58
2019-05-21T23:30:54.026Z,9.58
2019-05-21T23:33:22.235Z,8.30
2019-05-21T23:35:50.446Z,8.70
2019-05-21T23:38:19.193Z,8.50
2019-05-21T23:40:48.637Z,7.90
2019-05-21T23:43:17.246Z,8.18
2019-05-21T23:45:45.580Z,8.13
2019-05-21T23:48:14.606Z,8.38
2019-05-21T23:50:43.434Z,8.95
2019-05-21T23:53:11.552Z,8.98
2019-05-21T23:55:39.678Z,10.08
2019-05-21T23:58:07.806Z,8.93
